Time;durP1;ratioP1;P1;durP2;ratioP2;P2;SDS_P1;SDS_P2;PMS_P1;PMS_P2;Temp;Humidity;BMP_temperature;BMP_pressure;BME280_temperature;BME280_humidity;BME280_pressure;Samples;Min_cycle;Max_cycle;Signal;HPM_P1;HPM_P2
2023/10/16 00:00:55;;;;;;;9.53;6.43;;;;;;;9.29;72.26;97013.44;6295072;28;20048;-66
2023/10/16 00:03:57;;;;;;;10.07;6.38;;;;;;;9.41;71.87;97023.22;6295593;28;20458;-66
2023/10/16 00:07:03;;;;;;;9.98;7.03;;;;;;;9.25;72.30;97018.94;6295692;28;20040;-66
2023/10/16 00:10:11;;;;;;;7.88;6.72;;;;;;;9.34;72.26;97011.41;6295639;28;20078;-66
2023/10/16 00:13:19;;;;;;;10.05;6.38;;;;;;;9.34;72.17;97013.16;6294729;28;20436;-66
2023/10/16 00:16:23;;;;;;;9.27;6.85;;;;;;;9.16;72.75;97009.81;6294692;28;20199;-66
2023/10/16 00:19:26;;;;;;;8.80;6.65;;;;;;;9.28;72.33;97003.84;6294462;28;20530;-66
2023/10/16 00:22:28;;;;;;;10.30;7.15;;;;;;;9.11;73.04;97007.44;6295366;28;20094;-66
2023/10/16 00:25:29;;;;;;;9.80;7.18;;;;;;;9.11;73.01;96996.09;6295134;28;20070;-66
2023/10/16 00:28:42;;;;;;;8.90;6.70;;;;;;;8.99;73.42;97003.75;6295333;28;20163;-66
2023/10/16 00:31:51;;;;;;;12.63;6.40;;;;;;;8.92;73.64;97002.41;6277806;28;20437;-66
2023/10/16 00:34:54;;;;;;;12.05;7.47;;;;;;;8.90;73.66;96998.19;6294684;28;20427;-66
2023/10/16 00:37:57;;;;;;;11.25;7.57;;;;;;;8.88;73.44;97000.88;6294194;28;20062;-66
2023/10/16 00:44:18;;;;;;;9.45;6.68;;;;;;;8.79;74.16;97001.38;6294761;28;20048;-66
2023/10/16 00:47:24;;;;;;;;;;;;;;;8.80;73.72;97008.31;6295287;28;20041;-65
2023/10/16 00:50:32;;;;;;;9.93;7.22;;;;;;;8.82;74.13;97003.84;6294950;28;20354;-66
2023/10/16 00:53:34;;;;;;;9.50;7.38;;;;;;;8.92;73.74;97015.53;6196540;28;1768944;-66
2023/10/16 00:56:39;;;;;;;11.00;6.85;;;;;;;8.93;73.55;97019.84;6270020;28;20052;-66
2023/10/16 00:59:41;;;;;;;9.55;7.00;;;;;;;8.75;73.99;97020.88;6252303;28;20048;-67
2023/10/16 01:02:43;;;;;;;12.30;7.77;;;;;;;8.79;74.04;97025.00;6271109;28;20036;-67
2023/10/16 01:05:49;;;;;;;10.60;6.38;;;;;;;8.68;74.17;97025.59;6252548;28;20540;-67
2023/10/16 01:08:53;;;;;;;10.82;7.43;;;;;;;8.77;73.46;97025.09;6252325;28;20060;-67
2023/10/16 01:12:00;;;;;;;10.18;6.93;;;;;;;8.67;73.71;97030.94;6252750;28;20037;-67
2023/10/16 01:15:01;;;;;;;12.40;7.40;;;;;;;8.71;73.71;97029.81;6252518;28;20068;-66
2023/10/16 01:18:11;;;;;;;8.93;6.53;;;;;;;8.56;74.43;97026.25;6270688;28;20124;-66
2023/10/16 01:21:17;;;;;;;10.95;7.90;;;;;;;8.56;74.41;97025.44;6270616;28;20416;-66
2023/10/16 01:24:24;;;;;;;10.00;7.50;;;;;;;8.59;74.15;97025.25;6270331;28;20041;-66
2023/10/16 01:27:30;;;;;;;10.00;7.50;;;;;;;8.53;74.48;97027.28;6269464;28;20049;-66
2023/10/16 01:30:40;;;;;;;13.88;7.30;;;;;;;8.34;74.87;97021.28;6270852;28;20351;-67
2023/10/16 01:33:44;;;;;;;8.75;6.50;;;;;;;8.22;75.20;97021.97;6251791;28;20055;-67
2023/10/16 01:36:46;;;;;;;10.35;7.40;;;;;;;8.14;75.31;97018.91;6269052;28;20087;-67
2023/10/16 01:39:53;;;;;;;9.50;7.35;;;;;;;8.09;75.76;97025.22;6269553;28;20048;-67
2023/10/16 01:42:58;;;;;;;12.90;7.22;;;;;;;8.19;75.36;97024.75;6251800;28;20065;-67
2023/10/16 01:46:12;;;;;;;9.23;7.25;;;;;;;8.08;75.42;97026.16;6269130;28;20044;-67
2023/10/16 01:49:15;;;;;;;8.90;7.18;;;;;;;8.01;75.72;97030.03;6268819;28;20045;-67
2023/10/16 01:52:22;;;;;;;12.05;7.85;;;;;;;8.22;75.39;97028.03;6252109;28;20056;-67
2023/10/16 01:55:27;;;;;;;11.48;6.80;;;;;;;8.36;74.93;97029.94;6269376;28;20407;-67
2023/10/16 01:58:31;;;;;;;13.70;7.47;;;;;;;8.35;75.25;97032.63;6252684;28;20068;-67
2023/10/16 02:01:41;;;;;;;11.18;7.03;;;;;;;8.64;74.41;97037.19;6269656;28;20045;-67
2023/10/16 02:04:42;;;;;;;10.40;7.60;;;;;;;8.63;74.62;97034.63;6268803;28;20492;-66
2023/10/16 02:07:46;;;;;;;9.43;6.60;;;;;;;8.79;74.05;97039.91;6268674;28;20048;-67
2023/10/16 02:10:52;;;;;;;9.85;7.45;;;;;;;8.88;73.95;97047.25;6268647;28;20045;-67
2023/10/16 02:13:56;;;;;;;10.38;7.28;;;;;;;8.87;73.86;97043.78;6251002;28;20045;-67
2023/10/16 02:16:58;;;;;;;10.80;6.82;;;;;;;8.87;73.50;97040.34;6268998;28;20048;-67
2023/10/16 02:20:11;;;;;;;8.80;7.32;;;;;;;8.87;73.68;97045.59;6269164;28;20496;-67
2023/10/16 02:23:12;;;;;;;8.90;7.45;;;;;;;8.68;74.35;97040.50;6268644;28;20551;-67
2023/10/16 02:26:18;;;;;;;10.35;6.95;;;;;;;8.64;74.08;97049.47;6268479;28;20145;-67
2023/10/16 02:29:24;;;;;;;9.93;7.78;;;;;;;8.47;73.40;97050.38;6268219;28;20052;-66
2023/10/16 02:32:29;;;;;;;11.05;8.40;;;;;;;8.17;73.52;97050.19;6268274;28;20118;-66
2023/10/16 02:35:30;;;;;;;10.15;6.78;;;;;;;7.92;74.48;97053.22;6268883;28;20037;-67
2023/10/16 02:38:32;;;;;;;11.23;7.07;;;;;;;7.81;75.07;97056.38;6268035;28;20051;-68
2023/10/16 02:41:36;;;;;;;12.52;7.88;;;;;;;7.80;75.61;97054.69;6268870;28;20496;-66
2023/10/16 02:44:45;;;;;;;12.60;8.15;;;;;;;8.01;75.17;97056.22;6268953;28;20432;-65
2023/10/16 02:47:57;;;;;;;9.20;7.05;;;;;;;8.07;75.29;97049.81;6268913;28;20044;-66
2023/10/16 02:50:59;;;;;;;11.30;8.65;;;;;;;8.17;75.01;97055.41;6268855;28;20037;-67
2023/10/16 02:54:06;;;;;;;11.85;8.05;;;;;;;8.17;75.17;97060.66;6291476;28;20052;-66
2023/10/16 02:57:14;;;;;;;10.55;8.18;;;;;;;8.13;75.16;97060.00;6293472;28;20044;-67
2023/10/16 03:00:26;;;;;;;11.10;7.28;;;;;;;8.21;75.39;97062.19;6293523;28;20500;-66
2023/10/16 03:03:31;;;;;;;12.52;7.43;;;;;;;8.27;75.31;97069.75;6292535;28;20051;-66
2023/10/16 03:06:39;;;;;;;9.30;6.93;;;;;;;8.40;75.13;97073.44;6292558;28;20053;-66
2023/10/16 03:09:44;;;;;;;11.32;7.88;;;;;;;8.56;74.86;97070.00;6292454;28;20063;-67
2023/10/16 03:12:49;;;;;;;11.10;7.72;;;;;;;8.64;74.32;97066.03;6293289;28;20407;-66
2023/10/16 03:16:04;;;;;;;11.52;7.88;;;;;;;8.74;73.55;97079.50;6293448;28;20505;-67
2023/10/16 03:19:16;;;;;;;8.15;6.65;;;;;;;8.87;73.47;97077.91;6293433;28;20036;-66
2023/10/16 03:22:22;;;;;;;8.40;5.60;;;;;;;8.87;73.94;97083.16;6292532;28;20458;-66
2023/10/16 03:25:30;;;;;;;9.05;7.03;;;;;;;9.19;72.67;97083.16;6292654;28;20064;-67
2023/10/16 03:28:32;;;;;;;10.05;6.72;;;;;;;9.13;72.82;97094.84;6292304;28;20139;-66
2023/10/16 03:31:36;;;;;;;10.13;6.63;;;;;;;9.35;71.85;97091.88;6292804;28;20044;-66
2023/10/16 03:34:38;;;;;;;7.55;6.18;;;;;;;9.25;72.17;97093.31;6295743;28;20048;-66
2023/10/16 03:37:40;;;;;;;11.98;6.75;;;;;;;9.37;71.67;97095.25;6296723;28;20436;-67
2023/10/16 03:40:43;;;;;;;9.82;6.97;;;;;;;9.46;71.17;97098.31;6296619;28;20049;-66
2023/10/16 03:43:56;;;;;;;8.00;6.50;;;;;;;9.44;71.35;97093.13;6296573;28;20048;-66
2023/10/16 03:46:58;;;;;;;10.40;6.50;;;;;;;9.45;71.38;97105.31;6296912;28;20545;-67
2023/10/16 03:50:03;;;;;;;9.60;7.00;;;;;;;9.63;70.47;97103.44;6278818;28;20061;-65
2023/10/16 03:53:08;;;;;;;10.85;7.03;;;;;;;9.72;70.04;97108.16;6296387;28;20198;-66
2023/10/16 03:56:13;;;;;;;8.85;6.63;;;;;;;9.75;70.14;97101.88;6279280;28;20036;-67
2023/10/16 03:59:18;;;;;;;8.70;6.43;;;;;;;9.76;70.01;97099.16;6296577;28;20423;-66
2023/10/16 04:02:23;;;;;;;10.88;7.40;;;;;;;9.86;69.84;97107.38;6295672;28;20048;-67
2023/10/16 04:06:08;;;;;;;7.53;5.45;;;;;;;9.97;69.77;97106.75;6297048;28;20052;-67
2023/10/16 04:08:59;;;;;;;6.90;5.30;;;;;;;9.94;69.99;97106.94;6274031;28;20052;-66
2023/10/16 04:12:06;;;;;;;;;;;;;;;10.01;69.92;97116.13;6296631;28;20040;-66
2023/10/16 04:15:22;;;;;;;10.30;6.65;;;;;;;9.98;70.16;97111.06;6295713;28;20395;-67
2023/10/16 04:21:37;;;;;;;9.85;6.63;;;;;;;10.18;69.77;97115.13;6279762;28;20495;-67
2023/10/16 04:24:44;;;;;;;9.35;6.57;;;;;;;10.26;69.81;97118.16;6296052;28;20178;-66
2023/10/16 04:28:09;;;;;;;7.75;6.07;;;;;;;10.43;69.06;97125.06;6295278;28;20048;-67
2023/10/16 04:31:43;;;;;;;6.38;5.07;;;;;;;10.53;68.88;97131.44;6296298;28;20067;-66
2023/10/16 04:34:54;;;;;;;;;;;;;;;10.71;68.10;97127.72;6296848;28;20127;-65
2023/10/16 04:45:00;;;;;;;8.25;6.43;;;;;;;11.14;66.55;97127.66;6293817;28;20055;-66
2023/10/16 04:48:07;;;;;;;8.40;6.25;;;;;;;11.37;65.72;97128.00;6296058;28;20051;-67
2023/10/16 04:51:19;;;;;;;8.43;6.13;;;;;;;11.55;64.77;97129.47;6296270;28;20040;-67
2023/10/16 04:55:09;;;;;;;9.85;6.47;;;;;;;11.65;64.14;97130.53;6277870;28;20129;-67
2023/10/16 04:58:16;;;;;;;6.15;5.22;;;;;;;11.76;63.63;97129.00;6282038;28;20056;-66
2023/10/16 05:02:06;;;;;;;7.40;5.22;;;;;;;11.78;63.27;97127.13;6295672;28;20040;-66
2023/10/16 05:08:31;;;;;;;12.40;8.15;;;;;;;12.03;61.92;97127.22;6294567;28;20045;-67
2023/10/16 05:18:11;;;;;;;11.45;8.10;;;;;;;12.45;61.36;97129.69;6294413;28;20044;-66
2023/10/16 06:15:20;;;;;;;4.13;3.72;;;;;;;29.29;24.42;97174.56;6294024;28;20040;-66
2023/10/16 06:18:30;;;;;;;4.10;2.63;;;;;;;31.33;22.69;97181.03;6294106;28;20121;-66
2023/10/16 06:21:32;;;;;;;4.50;3.08;;;;;;;33.32;20.49;97184.94;6275946;28;20053;-66
2023/10/16 06:24:38;;;;;;;6.65;4.78;;;;;;;35.66;18.96;97184.25;6292643;28;20043;-66
2023/10/16 06:27:46;;;;;;;4.50;3.60;;;;;;;35.72;17.67;97184.06;6293863;28;20044;-65
2023/10/16 06:30:50;;;;;;;4.70;3.22;;;;;;;34.94;18.63;97169.44;6292668;28;20057;-66
2023/10/16 06:33:58;;;;;;;4.75;3.05;;;;;;;34.70;18.39;97182.41;6294082;28;20087;-66
2023/10/16 06:37:05;;;;;;;3.72;3.17;;;;;;;34.61;18.94;97175.69;6293001;28;20511;-66
2023/10/16 06:40:16;;;;;;;4.05;3.13;;;;;;;34.28;18.87;97174.47;6293831;28;20420;-66
2023/10/16 06:43:25;;;;;;;3.88;3.05;;;;;;;34.20;18.76;97180.34;6293646;28;20036;-66
2023/10/16 06:46:27;;;;;;;3.65;2.40;;;;;;;34.76;18.55;97165.00;6292298;28;20048;-67
2023/10/16 06:49:36;;;;;;;5.85;3.17;;;;;;;34.39;18.48;97164.59;6293661;28;20040;-66
2023/10/16 06:52:45;;;;;;;4.05;3.38;;;;;;;31.70;21.21;97172.94;6293253;28;20053;-66
2023/10/16 06:55:50;;;;;;;3.58;3.28;;;;;;;30.67;22.12;97176.13;6293394;28;20048;-67
2023/10/16 06:58:56;;;;;;;4.32;3.42;;;;;;;31.25;21.86;97181.34;6293440;28;20089;-66
2023/10/16 07:02:00;;;;;;;5.13;4.00;;;;;;;31.30;21.17;97186.91;6292428;28;20466;-67
2023/10/16 07:05:06;;;;;;;5.32;3.22;;;;;;;31.11;22.15;97187.91;6293150;28;20047;-65
2023/10/16 07:08:10;;;;;;;4.70;3.47;;;;;;;31.73;21.23;97196.13;6275713;28;20048;-66
2023/10/16 07:11:13;;;;;;;6.07;3.97;;;;;;;29.59;23.11;97198.50;6297306;28;20245;-67
2023/10/16 07:14:17;;;;;;;6.40;4.30;;;;;;;29.19;23.53;97182.28;6297046;28;20564;-66
2023/10/16 07:17:20;;;;;;;3.63;2.90;;;;;;;29.47;23.15;97206.44;6297282;28;20052;-66
2023/10/16 07:20:31;;;;;;;4.35;3.67;;;;;;;29.05;23.40;97195.00;6297124;28;20476;-66
2023/10/16 07:23:39;;;;;;;6.35;4.45;;;;;;;28.88;23.92;97199.16;6263172;28;20435;-66
2023/10/16 07:26:44;;;;;;;5.35;4.15;;;;;;;29.48;23.09;97182.88;6296950;28;20091;-66
2023/10/16 07:29:46;;;;;;;6.72;4.75;;;;;;;29.98;22.49;97162.28;6297418;28;20037;-67
2023/10/16 07:32:51;;;;;;;4.97;4.20;;;;;;;30.54;22.01;97171.59;6296813;28;20495;-67
2023/10/16 07:35:57;;;;;;;9.88;4.53;;;;;;;31.43;21.56;97191.44;6297687;28;20036;-66
2023/10/16 07:39:08;;;;;;;5.18;4.13;;;;;;;32.72;20.50;97174.16;6297604;28;20048;-67
2023/10/16 07:42:12;;;;;;;10.10;7.30;;;;;;;34.19;19.01;97160.38;6279853;28;20040;-67
2023/10/16 07:45:16;;;;;;;5.03;3.78;;;;;;;33.98;18.72;97142.75;6297498;28;20048;-67
2023/10/16 07:48:23;;;;;;;7.43;3.95;;;;;;;32.65;19.46;97160.66;6297306;28;20044;-67
2023/10/16 07:51:27;;;;;;;4.13;3.40;;;;;;;33.00;19.42;97158.00;6296413;28;20044;-66
2023/10/16 07:54:28;;;;;;;5.15;2.88;;;;;;;33.49;18.86;97169.53;6279231;28;20056;-66
2023/10/16 07:57:32;;;;;;;3.13;2.80;;;;;;;33.82;18.58;97148.97;6297087;28;20411;-66
2023/10/16 08:00:42;;;;;;;4.38;2.75;;;;;;;33.04;18.90;97137.41;6279816;28;20040;-65
2023/10/16 08:03:49;;;;;;;3.92;2.90;;;;;;;32.75;19.35;97143.72;6297207;28;20079;-66
2023/10/16 08:06:52;;;;;;;5.57;3.35;;;;;;;31.48;20.20;97156.25;6278799;28;20036;-66
2023/10/16 08:10:28;;;;;;;4.95;2.88;;;;;;;30.45;21.49;97145.78;6296069;28;20427;-67
2023/10/16 08:13:24;;;;;;;3.50;2.38;;;;;;;31.38;20.62;97165.97;6296836;28;20057;-66
2023/10/16 08:16:34;;;;;;;3.97;3.05;;;;;;;31.39;20.40;97170.34;6296732;28;20551;-67
2023/10/16 08:19:37;;;;;;;6.47;2.75;;;;;;;32.09;19.60;97173.53;6296470;28;20041;-66
2023/10/16 08:22:44;;;;;;;4.93;2.80;;;;;;;31.26;20.81;97196.56;6296552;28;20415;-67
2023/10/16 08:25:49;;;;;;;5.70;2.72;;;;;;;29.01;22.67;97173.91;6296690;28;20051;-66
2023/10/16 08:28:54;;;;;;;6.07;3.05;;;;;;;24.97;27.24;97155.09;6295320;28;20057;-67
2023/10/16 08:32:43;;;;;;;3.97;3.35;;;;;;;25.70;26.85;97158.84;6296409;28;20323;-67
2023/10/16 08:35:19;;;;;;;4.55;3.33;;;;;;;28.07;24.29;97153.16;6296398;28;20043;-66
2023/10/16 08:38:21;;;;;;;4.40;3.33;;;;;;;26.51;25.63;97163.31;6295730;28;20045;-66
2023/10/16 08:41:42;;;;;;;5.25;2.90;;;;;;;26.43;25.67;97148.88;6278811;28;20044;-66
2023/10/16 08:44:45;;;;;;;7.88;4.18;;;;;;;29.54;22.88;97182.00;6296086;28;20040;-66
2023/10/16 08:47:55;;;;;;;3.75;3.20;;;;;;;31.51;20.71;97168.56;6278515;28;20048;-67
2023/10/16 08:51:08;;;;;;;3.40;2.70;;;;;;;31.83;20.21;97169.22;6295721;28;20486;-66
2023/10/16 08:54:35;;;;;;;3.30;2.70;;;;;;;29.80;22.41;97173.00;6295644;28;20492;-66
2023/10/16 08:57:40;;;;;;;3.83;2.55;;;;;;;29.57;22.79;97165.31;6295793;28;20427;-67
2023/10/16 09:00:48;;;;;;;4.18;2.50;;;;;;;28.45;23.43;97134.53;6295622;28;20048;-66
2023/10/16 09:04:13;;;;;;;6.97;2.78;;;;;;;27.81;24.58;97145.78;6277154;28;20051;-66
2023/10/16 09:07:19;;;;;;;4.85;2.40;;;;;;;29.14;23.04;97144.16;6295554;28;20129;-66
2023/10/16 09:10:22;;;;;;;5.13;2.40;;;;;;;29.03;22.60;97153.75;6295365;28;20040;-67
2023/10/16 09:13:35;;;;;;;2.85;1.85;;;;;;;29.56;21.92;97149.28;6295221;28;20037;-66
2023/10/16 09:16:43;;;;;;;4.80;1.95;;;;;;;27.26;24.17;97135.72;6295149;28;20040;-66
2023/10/16 09:19:48;;;;;;;5.72;2.28;;;;;;;28.06;23.55;97157.72;6295140;28;20420;-66
2023/10/16 09:22:56;;;;;;;5.45;2.88;;;;;;;29.45;21.94;97167.84;6277728;28;20040;-67
2023/10/16 09:26:00;;;;;;;5.38;2.40;;;;;;;29.69;21.79;97157.38;6294191;28;20198;-66
2023/10/16 09:29:14;;;;;;;4.00;2.40;;;;;;;31.22;20.09;97146.41;6295074;28;20311;-66
2023/10/16 09:32:28;;;;;;;6.93;2.97;;;;;;;31.90;19.64;97136.50;6294410;28;20419;-66
2023/10/16 09:35:43;;;;;;;7.60;3.70;;;;;;;32.71;18.96;97147.97;6294104;28;20075;-66
2023/10/16 09:38:56;;;;;;;4.63;2.72;;;;;;;31.60;19.97;97137.28;6294943;28;20036;-67
2023/10/16 09:42:12;;;;;;;5.25;2.85;;;;;;;30.17;21.55;97130.66;6294805;28;20129;-67
2023/10/16 09:45:18;;;;;;;5.78;3.72;;;;;;;30.46;20.90;97119.44;6294583;28;20036;-67
2023/10/16 09:48:31;;;;;;;3.72;2.78;;;;;;;31.01;20.57;97138.69;6294623;28;20446;-67
2023/10/16 09:51:35;;;;;;;3.75;2.58;;;;;;;30.55;20.79;97126.28;6293941;28;20147;-66
2023/10/16 09:54:40;;;;;;;6.22;3.92;;;;;;;30.85;20.78;97124.59;6293912;28;20519;-67
2023/10/16 09:57:54;;;;;;;5.90;3.10;;;;;;;31.30;20.59;97148.84;6294281;28;20049;-67
2023/10/16 10:01:07;;;;;;;4.28;2.90;;;;;;;31.07;20.13;97133.19;6293361;28;20044;-68
2023/10/16 10:04:18;;;;;;;6.93;3.58;;;;;;;31.04;20.29;97132.81;6294355;28;20044;-66
2023/10/16 10:07:34;;;;;;;5.55;3.22;;;;;;;29.98;21.40;97128.91;6293876;28;20206;-68
2023/10/16 10:13:45;;;;;;;5.63;3.40;;;;;;;26.95;24.52;97119.88;6293353;28;20045;-67
2023/10/16 10:16:49;;;;;;;4.95;3.20;;;;;;;26.12;25.75;97110.59;6293935;28;20101;-67
2023/10/16 10:19:55;;;;;;;6.28;3.85;;;;;;;26.61;25.37;97126.03;6276186;28;20044;-67
2023/10/16 10:23:04;;;;;;;5.72;2.85;;;;;;;27.29;24.36;97129.06;6292977;28;20131;-68
2023/10/16 10:26:11;;;;;;;5.50;3.30;;;;;;;28.04;23.61;97121.94;6294473;28;20055;-67
2023/10/16 10:29:16;;;;;;;5.43;2.83;;;;;;;28.42;23.29;97134.94;6276455;28;20066;-67
2023/10/16 10:32:21;;;;;;;7.05;3.78;;;;;;;28.96;22.67;97142.06;6293442;28;20044;-67
2023/10/16 10:35:38;;;;;;;5.10;3.90;;;;;;;29.77;22.16;97127.31;6292992;28;20442;-67
2023/10/16 10:38:46;;;;;;;4.50;3.15;;;;;;;30.19;21.25;97130.44;6293855;28;20040;-67
2023/10/16 10:42:10;;;;;;;8.88;4.63;;;;;;;29.40;22.41;97137.84;6293258;28;20044;-67
2023/10/16 10:45:18;;;;;;;6.85;3.53;;;;;;;28.37;23.44;97137.41;6298958;28;20123;-67
2023/10/16 10:48:24;;;;;;;8.27;4.18;;;;;;;26.77;25.18;97136.56;6299007;28;20419;-68
2023/10/16 10:51:36;;;;;;;6.72;2.88;;;;;;;25.40;26.96;97133.78;6298625;28;20412;-67
2023/10/16 10:54:42;;;;;;;10.20;4.93;;;;;;;23.66;29.47;97130.94;6298622;28;20135;-68
2023/10/16 10:58:11;;;;;;;9.23;5.03;;;;;;;21.90;32.18;97127.91;6281085;28;20044;-68
2023/10/16 11:01:26;;;;;;;9.45;5.10;;;;;;;20.93;33.91;97120.31;6280396;28;20056;-68
2023/10/16 11:04:33;;;;;;;7.18;4.88;;;;;;;20.62;34.60;97118.94;6297652;28;20496;-67
2023/10/16 11:07:59;;;;;;;6.63;4.03;;;;;;;21.29;33.94;97118.34;6298300;28;20082;-67
2023/10/16 11:11:12;;;;;;;8.23;4.47;;;;;;;22.69;30.87;97125.66;6298396;28;20041;-68
2023/10/16 11:14:34;;;;;;;6.35;3.50;;;;;;;23.65;29.10;97143.53;6298354;28;20044;-67
2023/10/16 11:17:38;;;;;;;7.45;4.38;;;;;;;23.41;29.16;97135.56;6298190;28;20051;-68
2023/10/16 11:20:45;;;;;;;6.70;4.38;;;;;;;23.18;29.69;97120.19;6279509;28;20427;-67
2023/10/16 11:23:49;;;;;;;9.80;3.22;;;;;;;23.25;29.14;97140.00;6298022;28;20049;-67
2023/10/16 11:26:54;;;;;;;7.15;3.38;;;;;;;22.79;29.79;97125.47;6297866;28;20044;-67
2023/10/16 11:29:57;;;;;;;7.30;3.75;;;;;;;22.19;30.66;97134.69;6296919;28;20044;-66
2023/10/16 11:32:59;;;;;;;5.18;4.05;;;;;;;22.15;30.80;97133.31;6297161;28;20048;-67
2023/10/16 11:36:06;;;;;;;8.13;4.10;;;;;;;21.45;31.88;97142.50;6296835;28;20097;-67
2023/10/16 11:39:16;;;;;;;7.68;3.60;;;;;;;20.27;33.85;97129.63;6297499;28;20048;-67
2023/10/16 11:42:24;;;;;;;9.57;4.05;;;;;;;20.12;34.33;97116.81;6297510;28;20127;-67
2023/10/16 11:45:26;;;;;;;5.90;4.10;;;;;;;19.98;34.53;97120.03;6279656;28;20129;-68
2023/10/16 11:48:39;;;;;;;6.60;4.15;;;;;;;19.99;34.35;97118.22;6297278;28;20036;-66
2023/10/16 11:51:53;;;;;;;6.10;4.43;;;;;;;19.88;34.35;97121.94;6297179;28;20568;-67
2023/10/16 11:54:57;;;;;;;8.85;5.18;;;;;;;19.97;34.24;97118.38;6296418;28;20123;-67
2023/10/16 11:58:06;;;;;;;7.20;4.47;;;;;;;19.84;34.21;97123.22;6296731;28;20052;-67
2023/10/16 12:01:12;;;;;;;7.38;4.30;;;;;;;19.66;34.43;97112.53;6296265;28;20088;-67
2023/10/16 12:04:19;;;;;;;11.52;6.65;;;;;;;19.26;35.11;97119.06;6296815;28;20075;-67
2023/10/16 12:07:25;;;;;;;12.88;5.82;;;;;;;19.11;35.14;97108.03;6279467;28;20041;-68
2023/10/16 12:10:28;;;;;;;6.00;4.07;;;;;;;19.12;35.51;97109.69;6296348;28;20419;-67
2023/10/16 12:13:30;;;;;;;;;;;;;;;18.93;35.68;97123.09;6297337;28;20051;-67
2023/10/16 12:16:34;;;;;;;7.00;4.18;;;;;;;18.46;36.79;97112.41;6277395;28;19927;-68
2023/10/16 12:19:35;;;;;;;6.75;4.20;;;;;;;18.26;37.49;97109.75;6296008;28;20044;-69
2023/10/16 12:22:44;;;;;;;6.65;3.60;;;;;;;17.77;38.52;97108.88;6296471;28;20488;-67
2023/10/16 12:25:53;;;;;;;5.65;3.30;;;;;;;17.48;39.09;97114.97;6295557;28;20048;-67
2023/10/16 12:28:59;;;;;;;7.63;3.72;;;;;;;17.29;39.59;97109.59;6295553;28;20500;-67
2023/10/16 12:32:03;;;;;;;10.23;4.40;;;;;;;16.80;40.47;97104.09;6295957;28;20052;-66
2023/10/16 12:35:13;;;;;;;7.60;5.05;;;;;;;16.51;41.24;97114.56;6279240;28;20040;-67
2023/10/16 12:38:20;;;;;;;9.27;3.53;;;;;;;15.92;42.65;97115.94;6295929;28;20583;-67
2023/10/16 12:41:26;;;;;;;10.90;5.00;;;;;;;15.44;43.58;97110.97;6295933;28;20040;-67
2023/10/16 12:44:30;;;;;;;11.88;7.13;;;;;;;15.22;44.37;97119.81;6295633;28;20068;-68
2023/10/16 12:47:33;;;;;;;10.15;6.25;;;;;;;14.97;45.01;97120.91;6295679;28;20502;-67
2023/10/16 12:50:34;;;;;;;8.43;5.55;;;;;;;14.72;45.42;97113.19;6294873;28;20053;-67
2023/10/16 12:53:38;;;;;;;11.88;5.40;;;;;;;14.53;46.02;97116.44;6294917;28;20131;-68
2023/10/16 12:56:43;;;;;;;11.93;6.03;;;;;;;14.50;46.06;97119.28;6277152;28;20137;-68
2023/10/16 12:59:49;;;;;;;10.05;6.10;;;;;;;14.35;46.45;97119.50;6294871;28;20048;-68
2023/10/16 13:02:56;;;;;;;9.60;5.72;;;;;;;14.41;46.80;97120.84;6294963;28;20055;-68
2023/10/16 13:06:05;;;;;;;9.30;4.28;;;;;;;14.13;47.19;97112.34;6294726;28;20427;-67
2023/10/16 13:09:16;;;;;;;11.68;5.68;;;;;;;13.91;48.06;97121.03;6295203;28;20041;-67
2023/10/16 13:12:22;;;;;;;9.70;6.00;;;;;;;13.92;48.15;97122.72;6294554;28;20071;-66
2023/10/16 13:15:31;;;;;;;10.25;5.78;;;;;;;13.68;48.84;97127.19;6277803;28;20538;-68
2023/10/16 13:18:37;;;;;;;9.73;4.93;;;;;;;13.60;49.27;97126.91;6294383;28;20141;-68
2023/10/16 13:21:51;;;;;;;5.88;3.80;;;;;;;13.47;49.33;97114.59;6295137;28;20040;-67
2023/10/16 13:24:56;;;;;;;9.67;4.53;;;;;;;13.32;49.90;97117.47;6294348;28;20052;-68
2023/10/16 13:27:58;;;;;;;5.45;3.40;;;;;;;13.30;50.08;97114.94;6294568;28;20052;-68
2023/10/16 13:31:08;;;;;;;8.68;5.07;;;;;;;13.11;50.49;97114.56;6295083;28;20037;-67
2023/10/16 13:34:18;;;;;;;9.02;5.45;;;;;;;12.98;50.94;97118.03;6294612;28;20427;-67
2023/10/16 13:37:23;;;;;;;6.95;4.80;;;;;;;12.75;51.41;97118.81;6293940;28;20428;-67
2023/10/16 13:40:28;;;;;;;7.03;4.13;;;;;;;12.75;51.38;97124.09;6293465;28;20056;-68
2023/10/16 13:43:30;;;;;;;7.18;3.67;;;;;;;12.62;51.78;97120.63;6293241;28;20044;-67
2023/10/16 13:46:35;;;;;;;6.90;3.38;;;;;;;12.49;52.45;97121.47;6293989;28;20052;-67
2023/10/16 13:49:37;;;;;;;4.90;2.92;;;;;;;12.35;52.59;97118.94;6293554;28;20520;-67
2023/10/16 13:52:44;;;;;;;4.38;2.60;;;;;;;12.41;52.49;97120.31;6294227;28;20049;-67
2023/10/16 13:55:52;;;;;;;6.68;3.17;;;;;;;12.29;52.90;97116.72;6293832;28;20052;-67
2023/10/16 13:58:55;;;;;;;6.28;3.30;;;;;;;12.07;53.44;97109.41;6294266;28;20048;-67
2023/10/16 14:02:01;;;;;;;5.45;2.75;;;;;;;11.95;53.80;97113.69;6293147;28;20063;-68
2023/10/16 14:05:06;;;;;;;5.68;2.83;;;;;;;11.78;54.24;97111.31;6292870;28;20147;-68
2023/10/16 14:08:09;;;;;;;5.18;2.38;;;;;;;11.85;54.23;97112.56;6293571;28;20041;-67
2023/10/16 14:11:14;;;;;;;8.70;3.08;;;;;;;11.86;54.44;97117.78;6293705;28;20044;-68
2023/10/16 14:14:22;;;;;;;5.10;2.65;;;;;;;11.75;54.71;97117.63;6293846;28;20048;-67
2023/10/16 14:17:33;;;;;;;7.25;3.80;;;;;;;11.72;54.99;97116.97;6293704;28;20129;-67
2023/10/16 14:20:36;;;;;;;5.28;2.88;;;;;;;11.80;54.90;97115.50;6293578;28;20057;-67
2023/10/16 14:23:42;;;;;;;6.82;3.83;;;;;;;11.72;54.94;97116.97;6275098;28;20053;-67
2023/10/16 14:26:49;;;;;;;7.72;3.70;;;;;;;11.76;55.15;97113.19;6293928;28;20044;-66
2023/10/16 14:29:59;;;;;;;7.60;4.15;;;;;;;11.68;55.17;97109.25;6293664;28;20060;-66
2023/10/16 14:33:03;;;;;;;10.95;4.93;;;;;;;11.62;55.35;97117.56;6294058;28;20036;-68
2023/10/16 14:36:06;;;;;;;6.90;4.90;;;;;;;11.63;55.46;97119.28;6292531;28;20049;-66
2023/10/16 14:39:08;;;;;;;10.45;5.85;;;;;;;11.73;55.19;97113.41;6293284;28;20053;-67
2023/10/16 14:42:11;;;;;;;9.65;6.68;;;;;;;11.58;55.57;97120.53;6293364;28;20061;-67
2023/10/16 14:45:15;;;;;;;8.63;6.45;;;;;;;11.47;55.80;97126.47;6293417;28;20147;-67
2023/10/16 14:48:19;;;;;;;8.88;7.00;;;;;;;11.45;55.89;97112.53;6293061;28;20051;-66
2023/10/16 14:51:30;;;;;;;10.48;6.05;;;;;;;11.39;56.07;97110.31;6293531;28;20040;-67
2023/10/16 14:54:34;;;;;;;8.82;6.63;;;;;;;11.28;56.24;97104.88;6293433;28;20395;-67
2023/10/16 14:57:41;;;;;;;9.15;5.90;;;;;;;11.15;56.92;97103.03;6275421;28;20056;-66
2023/10/16 15:00:50;;;;;;;11.82;6.47;;;;;;;11.02;57.08;97107.38;6293823;28;20044;-68
2023/10/16 15:03:56;;;;;;;10.40;7.00;;;;;;;11.01;57.19;97110.94;6293545;28;20040;-66
2023/10/16 15:07:04;;;;;;;11.00;7.32;;;;;;;11.08;57.06;97100.88;6292542;28;20427;-67
2023/10/16 15:10:09;;;;;;;10.38;6.93;;;;;;;11.07;57.06;97104.44;6293675;28;20411;-67
2023/10/16 15:13:17;;;;;;;16.73;7.93;;;;;;;11.08;57.19;97091.19;6293554;28;20056;-67
2023/10/16 15:16:26;;;;;;;16.23;7.65;;;;;;;11.07;57.35;97091.28;6293568;28;20047;-66
2023/10/16 15:19:28;;;;;;;13.32;6.90;;;;;;;10.99;57.59;97094.41;6292523;28;20045;-67
2023/10/16 15:22:42;;;;;;;11.70;8.07;;;;;;;10.87;57.78;97092.53;6293379;28;20521;-67
2023/10/16 15:25:46;;;;;;;13.90;8.25;;;;;;;10.94;57.89;97093.84;6292059;28;20537;-66
2023/10/16 15:28:52;;;;;;;15.30;8.35;;;;;;;10.77;58.21;97082.59;6293139;28;20063;-67
2023/10/16 15:31:57;;;;;;;15.15;8.18;;;;;;;10.77;58.06;97087.84;6298127;28;20419;-67
2023/10/16 15:35:00;;;;;;;14.13;7.90;;;;;;;10.69;58.37;97089.25;6297376;28;20052;-67
2023/10/16 15:38:12;;;;;;;10.43;7.45;;;;;;;10.67;58.64;97086.75;6297732;28;20503;-68
2023/10/16 15:41:22;;;;;;;15.07;8.15;;;;;;;10.53;58.83;97071.81;6297154;28;20063;-67
2023/10/16 15:44:54;;;;;;;12.40;7.57;;;;;;;10.54;59.08;97091.06;6297864;28;20044;-67
2023/10/16 15:48:01;;;;;;;11.68;7.03;;;;;;;10.45;59.20;97091.63;6297456;28;20412;-67
2023/10/16 15:51:07;;;;;;;10.48;6.18;;;;;;;10.50;59.08;97089.53;6296405;28;20126;-68
2023/10/16 15:54:14;;;;;;;9.52;5.68;;;;;;;10.54;59.10;97093.69;6295872;28;20515;-67
2023/10/16 15:57:22;;;;;;;10.68;5.55;;;;;;;10.39;59.39;97076.19;6296698;28;20074;-67
2023/10/16 16:00:41;;;;;;;10.82;6.07;;;;;;;10.47;59.55;97087.97;6297408;28;20045;-67
2023/10/16 16:03:45;;;;;;;10.18;4.88;;;;;;;10.28;60.02;97080.34;6297347;28;20044;-68